Time;durP1;ratioP1;P1;durP2;ratioP2;P2;SDS_P1;SDS_P2;PMS_P1;PMS_P2;Temp;Humidity;BMP_temperature;BMP_pressure;BME280_temperature;BME280_humidity;BME280_pressure;Samples;Min_cycle;Max_cycle;Signal;HPM_P1;HPM_P2
2023/11/16 00:02:16;;;;;;;5.53;1.50;;;;;;;;;;5112957;28;20061;-28
2023/11/16 00:04:41;;;;;;;8.50;1.27;;;;;;;;;;5111535;28;20026;-28
2023/11/16 00:07:08;;;;;;;5.03;1.27;;;;;;;;;;5111498;28;20012;-28
2023/11/16 00:09:33;;;;;;;6.95;1.05;;;;;;;;;;5111358;28;20627;-27
2023/11/16 00:12:00;;;;;;;6.70;1.25;;;;;;;;;;5111132;28;20020;-27
2023/11/16 00:14:26;;;;;;;6.18;1.20;;;;;;;;;;5111413;28;20351;-28
2023/11/16 00:16:51;;;;;;;5.80;1.30;;;;;;;;;;5111355;28;20095;-28
2023/11/16 00:19:18;;;;;;;5.67;1.07;;;;;;;;;;5112911;28;20098;-27
2023/11/16 00:21:43;;;;;;;4.70;0.90;;;;;;;;;;5115418;28;20318;-28
2023/11/16 00:24:10;;;;;;;5.63;1.17;;;;;;;;;;5117151;28;20019;-27
2023/11/16 00:26:36;;;;;;;5.32;0.93;;;;;;;;;;5117145;28;20035;-27
2023/11/16 00:29:02;;;;;;;4.70;1.10;;;;;;;;;;5117256;28;20370;-27
2023/11/16 00:31:30;;;;;;;9.77;1.27;;;;;;;;;;5116678;28;20019;-27
2023/11/16 00:33:55;;;;;;;12.65;1.13;;;;;;;;;;5117034;28;20384;-27
2023/11/16 00:36:23;;;;;;;4.25;1.00;;;;;;;;;;5116974;28;20019;-28
2023/11/16 00:38:48;;;;;;;6.32;0.60;;;;;;;;;;5116834;28;20034;-28
2023/11/16 00:41:15;;;;;;;9.47;1.20;;;;;;;;;;5116641;28;20019;-27
2023/11/16 00:43:40;;;;;;;7.07;1.63;;;;;;;;;;5116669;28;20284;-27
2023/11/16 00:46:08;;;;;;;6.85;1.00;;;;;;;;;;5116441;28;20027;-27
2023/11/16 00:48:34;;;;;;;6.47;1.08;;;;;;;;;;5116586;28;20023;-28
2023/11/16 00:50:59;;;;;;;8.30;1.00;;;;;;;;;;5116862;28;20012;-27
2023/11/16 00:53:25;;;;;;;4.57;1.10;;;;;;;;;;5116176;28;20072;-28
2023/11/16 00:55:50;;;;;;;5.07;1.00;;;;;;;;;;5116538;28;20250;-27
2023/11/16 00:58:16;;;;;;;5.65;1.08;;;;;;;;;;5116530;28;20068;-28
2023/11/16 01:00:42;;;;;;;3.55;0.68;;;;;;;;;;5116396;28;20027;-31
2023/11/16 01:03:07;;;;;;;12.13;1.45;;;;;;;;;;5116730;28;20093;-27
2023/11/16 01:05:32;;;;;;;6.03;0.93;;;;;;;;;;5116148;28;20090;-27
2023/11/16 01:07:58;;;;;;;5.70;0.70;;;;;;;;;;5116232;28;20024;-27
2023/11/16 01:10:24;;;;;;;7.22;0.73;;;;;;;;;;5116022;28;20366;-27
2023/11/16 01:12:52;;;;;;;5.07;0.88;;;;;;;;;;5115874;28;20024;-27
2023/11/16 01:15:18;;;;;;;6.97;1.30;;;;;;;;;;5116452;28;20019;-27
2023/11/16 01:17:45;;;;;;;7.30;0.77;;;;;;;;;;5116103;28;20035;-27
2023/11/16 01:20:18;;;;;;;5.55;1.13;;;;;;;;;;5116072;28;20015;-27
2023/11/16 01:22:50;;;;;;;7.30;0.90;;;;;;;;;;5116063;28;20030;-27
2023/11/16 01:25:16;;;;;;;8.95;1.67;;;;;;;;;;5116062;28;20043;-27
2023/11/16 01:27:44;;;;;;;11.93;1.27;;;;;;;;;;5115606;28;20030;-27
2023/11/16 01:30:12;;;;;;;11.45;1.00;;;;;;;;;;5115931;28;20106;-28
2023/11/16 01:32:37;;;;;;;9.77;1.13;;;;;;;;;;5115489;28;20020;-28
2023/11/16 01:35:04;;;;;;;8.98;1.17;;;;;;;;;;5115597;28;20085;-27
2023/11/16 01:37:29;;;;;;;7.57;1.13;;;;;;;;;;5115401;28;20012;-27
2023/11/16 01:39:55;;;;;;;6.68;1.35;;;;;;;;;;5115398;28;20390;-28
2023/11/16 01:42:20;;;;;;;8.07;1.38;;;;;;;;;;5115518;28;20027;-27
2023/11/16 01:44:45;;;;;;;6.00;1.17;;;;;;;;;;5115805;28;20019;-28
2023/11/16 01:47:13;;;;;;;10.73;1.35;;;;;;;;;;5115590;28;20480;-28
2023/11/16 01:49:39;;;;;;;8.00;1.10;;;;;;;;;;5115128;28;20020;-27
2023/11/16 01:52:05;;;;;;;4.43;1.07;;;;;;;;;;5115114;28;20020;-27
2023/11/16 01:54:31;;;;;;;7.93;0.93;;;;;;;;;;5115346;28;20273;-28
2023/11/16 01:56:57;;;;;;;8.20;0.88;;;;;;;;;;5115072;28;20012;-28
2023/11/16 01:59:23;;;;;;;3.10;0.80;;;;;;;;;;5115647;28;20076;-27
2023/11/16 02:01:49;;;;;;;5.18;1.10;;;;;;;;;;5115279;28;20262;-27
2023/11/16 02:04:15;;;;;;;5.78;0.90;;;;;;;;;;5114914;28;20027;-28
2023/11/16 02:06:40;;;;;;;5.28;1.00;;;;;;;;;;5115100;28;20099;-27
2023/11/16 02:09:06;;;;;;;8.00;1.17;;;;;;;;;;5114786;28;20111;-27
2023/11/16 02:11:31;;;;;;;4.28;0.98;;;;;;;;;;5114790;28;20091;-28
2023/11/16 02:13:56;;;;;;;4.27;0.90;;;;;;;;;;5114993;28;20407;-27
2023/11/16 02:16:21;;;;;;;4.07;0.90;;;;;;;;;;5114708;28;20245;-27
2023/11/16 02:18:47;;;;;;;6.28;1.05;;;;;;;;;;5114894;28;20272;-27
2023/11/16 02:21:12;;;;;;;7.65;0.88;;;;;;;;;;5114838;28;20050;-28
2023/11/16 02:23:39;;;;;;;5.70;1.48;;;;;;;;;;5096420;28;20051;-27
2023/11/16 02:26:04;;;;;;;6.30;0.90;;;;;;;;;;5114780;28;20481;-28
2023/11/16 02:28:30;;;;;;;7.35;1.00;;;;;;;;;;5114909;28;20098;-27
2023/11/16 02:30:57;;;;;;;7.38;0.90;;;;;;;;;;5114710;28;20106;-28
2023/11/16 02:33:23;;;;;;;11.27;0.98;;;;;;;;;;5114925;28;20094;-27
2023/11/16 02:35:52;;;;;;;3.72;1.10;;;;;;;;;;5114383;28;20054;-27
2023/11/16 02:38:18;;;;;;;8.05;1.35;;;;;;;;;;5114274;28;20028;-27
2023/11/16 02:40:43;;;;;;;11.43;2.47;;;;;;;;;;5114519;28;20027;-28
2023/11/16 02:43:08;;;;;;;5.68;1.30;;;;;;;;;;5114194;28;20104;-27
2023/11/16 02:45:34;;;;;;;6.47;1.20;;;;;;;;;;5113324;28;20027;-28
2023/11/16 02:47:59;;;;;;;7.47;1.40;;;;;;;;;;5113946;28;20023;-27
2023/11/16 02:50:26;;;;;;;6.03;1.23;;;;;;;;;;5114344;28;20027;-27
2023/11/16 02:52:51;;;;;;;2.80;1.10;;;;;;;;;;5114310;28;20008;-28
2023/11/16 02:55:17;;;;;;;6.10;1.23;;;;;;;;;;5113947;28;20062;-27
2023/11/16 02:57:43;;;;;;;8.38;1.60;;;;;;;;;;5114272;28;20020;-27
2023/11/16 03:00:12;;;;;;;4.60;1.20;;;;;;;;;;5095740;28;20012;-27
2023/11/16 03:02:37;;;;;;;4.55;1.20;;;;;;;;;;5096254;28;20030;-27
2023/11/16 03:05:06;;;;;;;6.57;1.10;;;;;;;;;;5113933;28;20091;-27
2023/11/16 03:07:32;;;;;;;3.83;0.90;;;;;;;;;;5113761;28;20094;-28
2023/11/16 03:09:57;;;;;;;6.45;1.08;;;;;;;;;;5114119;28;20027;-28
2023/11/16 03:12:22;;;;;;;3.30;0.90;;;;;;;;;;5114259;28;20012;-27
2023/11/16 03:14:48;;;;;;;5.50;1.33;;;;;;;;;;5113802;28;20743;-27
2023/11/16 03:17:13;;;;;;;4.40;0.60;;;;;;;;;;5113804;28;20309;-27
2023/11/16 03:19:42;;;;;;;3.90;0.80;;;;;;;;;;5114492;28;20254;-27
2023/11/16 03:22:07;;;;;;;7.50;0.90;;;;;;;;;;5113658;28;20272;-27
2023/11/16 03:24:33;;;;;;;7.53;1.40;;;;;;;;;;5114265;28;20021;-27
2023/11/16 03:26:59;;;;;;;8.85;1.25;;;;;;;;;;5114303;28;20249;-27
2023/11/16 03:29:25;;;;;;;5.10;0.90;;;;;;;;;;5113754;28;20469;-27
2023/11/16 03:31:50;;;;;;;4.63;1.08;;;;;;;;;;5113892;28;20061;-28
2023/11/16 03:34:16;;;;;;;2.70;0.87;;;;;;;;;;5113634;28;20416;-27
2023/11/16 03:36:42;;;;;;;4.38;1.00;;;;;;;;;;5114095;28;20015;-27
2023/11/16 03:39:07;;;;;;;6.95;1.00;;;;;;;;;;5113847;28;20023;-27
2023/11/16 03:41:33;;;;;;;3.70;0.63;;;;;;;;;;5113534;28;20018;-27
2023/11/16 03:43:58;;;;;;;3.58;0.98;;;;;;;;;;5113786;28;20344;-27
2023/11/16 03:46:24;;;;;;;8.65;1.10;;;;;;;;;;5113383;28;20474;-28
2023/11/16 03:48:49;;;;;;;6.73;1.20;;;;;;;;;;5113340;28;20027;-27
2023/11/16 03:51:16;;;;;;;6.72;1.23;;;;;;;;;;5113658;28;20409;-27
2023/11/16 03:53:41;;;;;;;7.03;1.15;;;;;;;;;;5113394;28;20173;-27
2023/11/16 03:56:07;;;;;;;4.03;1.15;;;;;;;;;;5114680;28;20049;-27
2023/11/16 03:58:32;;;;;;;3.50;1.10;;;;;;;;;;5117530;28;20027;-27
2023/11/16 04:00:58;;;;;;;8.70;1.30;;;;;;;;;;5117879;28;20026;-27
2023/11/16 04:03:23;;;;;;;10.07;1.50;;;;;;;;;;5117303;28;20253;-27
2023/11/16 04:05:48;;;;;;;7.50;1.27;;;;;;;;;;5117886;28;20273;-28
2023/11/16 04:08:13;;;;;;;4.53;1.00;;;;;;;;;;5115931;28;20281;-27
2023/11/16 04:10:39;;;;;;;3.78;0.82;;;;;;;;;;5115481;28;20686;-27
2023/11/16 04:13:05;;;;;;;2.95;1.10;;;;;;;;;;5115730;28;20019;-28
2023/11/16 04:15:30;;;;;;;3.97;1.10;;;;;;;;;;5115402;28;20008;-27
2023/11/16 04:17:55;;;;;;;7.72;1.48;;;;;;;;;;5115442;28;20047;-27
2023/11/16 04:20:23;;;;;;;8.93;1.35;;;;;;;;;;5115446;28;20442;-27
2023/11/16 04:22:48;;;;;;;6.63;1.10;;;;;;;;;;5116524;28;20363;-27
2023/11/16 04:25:25;;;;;;;3.50;1.60;;;;;;;;;;5117127;28;20038;-27
2023/11/16 04:27:50;;;;;;;5.70;1.40;;;;;;;;;;5116642;28;20047;-27
2023/11/16 04:30:20;;;;;;;4.15;1.10;;;;;;;;;;5116881;28;20062;-27
2023/11/16 04:32:45;;;;;;;5.22;1.40;;;;;;;;;;5116863;28;20023;-27
2023/11/16 04:35:13;;;;;;;7.65;1.27;;;;;;;;;;5116641;28;20016;-27
2023/11/16 04:37:38;;;;;;;4.88;1.55;;;;;;;;;;5116528;28;20023;-28
2023/11/16 04:40:09;;;;;;;5.37;1.20;;;;;;;;;;5117147;28;20016;-27
2023/11/16 04:42:35;;;;;;;4.15;1.13;;;;;;;;;;5116775;28;20253;-27
2023/11/16 04:45:04;;;;;;;4.30;1.00;;;;;;;;;;5116506;28;20481;-28
2023/11/16 04:47:30;;;;;;;6.10;1.20;;;;;;;;;;5116703;28;20459;-27
2023/11/16 04:49:55;;;;;;;2.78;1.35;;;;;;;;;;5117089;28;20030;-27
2023/11/16 04:52:20;;;;;;;4.60;1.33;;;;;;;;;;5116631;28;20016;-27
2023/11/16 04:54:45;;;;;;;7.13;1.03;;;;;;;;;;5116212;28;20414;-27
2023/11/16 04:57:11;;;;;;;3.80;1.40;;;;;;;;;;5116731;28;20246;-28
2023/11/16 04:59:36;;;;;;;2.03;1.10;;;;;;;;;;5116179;28;20249;-27
2023/11/16 05:02:01;;;;;;;5.47;2.03;;;;;;;;;;5116716;28;20289;-27
2023/11/16 05:04:26;;;;;;;5.27;1.60;;;;;;;;;;5116076;28;20246;-28
2023/11/16 05:06:51;;;;;;;2.63;1.27;;;;;;;;;;5116499;28;20253;-28
2023/11/16 05:09:16;;;;;;;2.03;1.37;;;;;;;;;;5115685;28;20265;-28
2023/11/16 05:11:42;;;;;;;7.37;1.20;;;;;;;;;;5116079;28;20657;-27
2023/11/16 05:14:07;;;;;;;4.78;1.38;;;;;;;;;;5115880;28;20248;-27
2023/11/16 05:16:32;;;;;;;6.37;1.47;;;;;;;;;;5116434;28;20016;-27
2023/11/16 05:18:57;;;;;;;11.17;1.47;;;;;;;;;;5116123;28;20716;-28
2023/11/16 05:21:22;;;;;;;5.53;1.83;;;;;;;;;;5116301;28;20344;-28
2023/11/16 05:23:49;;;;;;;9.17;1.60;;;;;;;;;;5115747;28;20027;-28
2023/11/16 05:26:14;;;;;;;4.30;1.55;;;;;;;;;;5116222;28;20344;-28
2023/11/16 05:28:39;;;;;;;4.30;1.60;;;;;;;;;;5115617;28;20059;-28
2023/11/16 05:31:04;;;;;;;3.90;1.67;;;;;;;;;;5115817;28;20257;-28
2023/11/16 05:33:31;;;;;;;3.88;1.70;;;;;;;;;;5115750;28;20252;-28
2023/11/16 05:35:56;;;;;;;6.63;1.80;;;;;;;;;;5115497;28;20057;-29
2023/11/16 05:38:21;;;;;;;6.10;1.87;;;;;;;;;;5116009;28;20023;-27
2023/11/16 05:40:46;;;;;;;5.97;2.20;;;;;;;;;;5115684;28;20261;-27
2023/11/16 05:43:11;;;;;;;6.45;2.22;;;;;;;;;;5115654;28;20027;-27
2023/11/16 05:45:39;;;;;;;7.00;2.00;;;;;;;;;;5115566;28;20023;-28
2023/11/16 05:48:07;;;;;;;4.82;2.17;;;;;;;;;;5115469;28;20048;-28
2023/11/16 05:50:33;;;;;;;8.50;2.40;;;;;;;;;;5115455;28;20026;-27
2023/11/16 05:52:58;;;;;;;8.95;2.20;;;;;;;;;;5114410;28;20094;-28
2023/11/16 05:55:25;;;;;;;7.70;2.40;;;;;;;;;;5114117;28;20024;-28
2023/11/16 05:57:50;;;;;;;3.75;2.05;;;;;;;;;;5114004;28;20249;-28
2023/11/16 06:00:16;;;;;;;4.03;2.03;;;;;;;;;;5114008;28;20023;-27
2023/11/16 06:02:41;;;;;;;5.50;2.22;;;;;;;;;;5114072;28;20449;-28
2023/11/16 06:05:08;;;;;;;5.22;2.00;;;;;;;;;;5114583;28;20019;-28
2023/11/16 06:07:34;;;;;;;8.85;2.15;;;;;;;;;;5115340;28;20011;-28
2023/11/16 06:10:00;;;;;;;5.15;1.92;;;;;;;;;;5115119;28;20038;-28
2023/11/16 06:12:25;;;;;;;4.07;1.90;;;;;;;;;;5114652;28;20455;-28
2023/11/16 06:14:56;;;;;;;15.30;2.47;;;;;;;;;;5114758;28;20015;-28
2023/11/16 06:17:23;;;;;;;5.03;2.20;;;;;;;;;;5114665;28;20241;-28
2023/11/16 06:19:48;;;;;;;8.48;2.88;;;;;;;;;;5114450;28;20073;-32
2023/11/16 06:22:14;;;;;;;6.28;2.17;;;;;;;;;;5114556;28;20405;-27
2023/11/16 06:24:39;;;;;;;6.82;2.35;;;;;;;;;;5114781;28;20035;-28
2023/11/16 06:27:04;;;;;;;6.35;2.20;;;;;;;;;;5115048;28;20024;-28
2023/11/16 06:29:30;;;;;;;4.70;2.20;;;;;;;;;;5114359;28;20102;-28
2023/11/16 06:31:56;;;;;;;4.93;2.10;;;;;;;;;;5114622;28;20253;-27
2023/11/16 06:34:21;;;;;;;7.03;2.50;;;;;;;;;;5114658;28;20563;-27
2023/11/16 06:36:47;;;;;;;4.55;2.28;;;;;;;;;;5114577;28;20035;-28
2023/11/16 06:39:12;;;;;;;6.45;2.50;;;;;;;;;;5114196;28;20024;-28
2023/11/16 06:41:38;;;;;;;5.43;2.30;;;;;;;;;;5114765;28;20028;-28
2023/11/16 06:44:05;;;;;;;10.13;2.83;;;;;;;;;;5114382;28;20265;-28
2023/11/16 06:46:32;;;;;;;7.18;2.70;;;;;;;;;;5114093;28;20023;-27
2023/11/16 06:48:57;;;;;;;10.85;2.60;;;;;;;;;;5114584;28;20096;-28
2023/11/16 06:51:22;;;;;;;7.07;2.00;;;;;;;;;;5114959;28;20043;-28
2023/11/16 06:53:47;;;;;;;5.03;2.90;;;;;;;;;;5113862;28;20281;-27
2023/11/16 06:56:13;;;;;;;6.55;2.33;;;;;;;;;;5114584;28;20085;-28
2023/11/16 06:58:40;;;;;;;7.67;2.70;;;;;;;;;;5113936;28;20020;-28
2023/11/16 07:01:05;;;;;;;7.88;2.10;;;;;;;;;;5115029;28;20257;-28
2023/11/16 07:03:30;;;;;;;6.32;1.92;;;;;;;;;;5114280;28;20026;-27
2023/11/16 07:05:55;;;;;;;7.37;2.20;;;;;;;;;;5114393;28;20023;-27
2023/11/16 07:08:21;;;;;;;8.93;2.50;;;;;;;;;;5113807;28;20404;-28
2023/11/16 07:10:46;;;;;;;6.77;2.87;;;;;;;;;;5114120;28;20026;-28
2023/11/16 07:13:14;;;;;;;7.47;2.60;;;;;;;;;;5113737;28;20831;-27
2023/11/16 07:15:48;;;;;;;5.55;2.40;;;;;;;;;;5113964;28;20720;-27
2023/11/16 07:18:13;;;;;;;9.82;2.78;;;;;;;;;;5113712;28;20016;-28
2023/11/16 07:20:40;;;;;;;4.40;2.58;;;;;;;;;;5113603;28;20022;-28
2023/11/16 07:23:05;;;;;;;7.03;2.65;;;;;;;;;;5114409;28;20053;-28
2023/11/16 07:25:32;;;;;;;9.17;3.13;;;;;;;;;;5114211;28;20023;-28
2023/11/16 07:27:58;;;;;;;8.90;3.22;;;;;;;;;;5113560;28;20245;-29
2023/11/16 07:30:24;;;;;;;7.70;2.90;;;;;;;;;;5113920;28;20023;-28
2023/11/16 07:32:50;;;;;;;7.13;3.10;;;;;;;;;;5118098;28;20057;-28
2023/11/16 07:35:15;;;;;;;6.72;2.83;;;;;;;;;;5118019;28;20408;-27
2023/11/16 07:37:44;;;;;;;8.80;3.65;;;;;;;;;;5117939;28;20451;-32
2023/11/16 07:40:11;;;;;;;5.78;3.05;;;;;;;;;;5117274;28;20097;-27
2023/11/16 07:42:36;;;;;;;5.97;2.92;;;;;;;;;;5117970;28;20478;-28
2023/11/16 07:45:02;;;;;;;13.75;8.55;;;;;;;;;;5117507;28;20022;-28
2023/11/16 07:47:28;;;;;;;20.35;10.25;;;;;;;;;;5117860;28;20072;-28
2023/11/16 07:49:53;;;;;;;18.50;8.52;;;;;;;;;;5117722;28;20042;-28
2023/11/16 07:52:20;;;;;;;13.37;7.33;;;;;;;;;;5117475;28;20015;-27
2023/11/16 07:54:46;;;;;;;15.60;7.78;;;;;;;;;;5117301;28;20292;-33
2023/11/16 07:57:20;;;;;;;10.38;5.93;;;;;;;;;;5117921;28;20061;-28
2023/11/16 07:59:45;;;;;;;10.30;4.80;;;;;;;;;;5117532;28;20028;-27
2023/11/16 08:02:16;;;;;;;8.95;4.53;;;;;;;;;;5117615;28;20046;-28
2023/11/16 08:04:41;;;;;;;7.25;4.00;;;;;;;;;;5117540;28;20080;-28
2023/11/16 08:07:07;;;;;;;8.80;3.90;;;;;;;;;;5117237;28;20412;-28
2023/11/16 08:09:34;;;;;;;8.10;3.80;;;;;;;;;;5117052;28;20372;-28
2023/11/16 08:12:00;;;;;;;10.38;4.80;;;;;;;;;;5117294;28;20016;-27
2023/11/16 08:14:25;;;;;;;10.27;3.90;;;;;;;;;;5117144;28;20478;-27
2023/11/16 08:16:51;;;;;;;13.30;4.97;;;;;;;;;;5117600;28;20274;-28
2023/11/16 08:19:16;;;;;;;14.75;6.00;;;;;;;;;;5117339;28;20257;-28
2023/11/16 08:21:42;;;;;;;26.50;12.10;;;;;;;;;;5116926;28;20478;-28
2023/11/16 08:24:10;;;;;;;13.38;6.30;;;;;;;;;;5117192;28;20294;-28
2023/11/16 08:26:35;;;;;;;8.85;4.07;;;;;;;;;;5117144;28;20035;-28
2023/11/16 08:29:00;;;;;;;15.27;4.53;;;;;;;;;;5117118;28;20020;-27
2023/11/16 08:31:28;;;;;;;7.17;4.13;;;;;;;;;;5116859;28;20370;-27
2023/11/16 08:33:53;;;;;;;8.18;3.97;;;;;;;;;;5117693;28;20631;-27
2023/11/16 08:36:20;;;;;;;6.53;3.40;;;;;;;;;;5116760;28;20012;-28
2023/11/16 08:38:45;;;;;;;6.38;3.90;;;;;;;;;;5116582;28;20260;-28
2023/11/16 08:41:15;;;;;;;5.75;3.58;;;;;;;;;;5116604;28;20019;-27
2023/11/16 08:43:40;;;;;;;10.95;3.40;;;;;;;;;;5096869;28;20019;-28
2023/11/16 08:46:06;;;;;;;7.00;3.50;;;;;;;;;;5116763;28;20019;-28
2023/11/16 08:48:31;;;;;;;6.57;3.88;;;;;;;;;;5116688;28;20485;-27
2023/11/16 08:50:57;;;;;;;9.07;4.53;;;;;;;;;;5116588;28;20043;-28
2023/11/16 08:53:23;;;;;;;8.07;4.20;;;;;;;;;;5116184;28;20070;-27
2023/11/16 08:55:49;;;;;;;7.43;4.15;;;;;;;;;;5116639;28;20011;-28
2023/11/16 08:58:14;;;;;;;9.70;4.18;;;;;;;;;;5116601;28;20382;-28
2023/11/16 09:00:45;;;;;;;7.83;4.10;;;;;;;;;;5116090;28;20482;-27
2023/11/16 09:03:10;;;;;;;8.10;4.38;;;;;;;;;;5116427;28;20328;-27
2023/11/16 09:05:37;;;;;;;14.63;4.90;;;;;;;;;;5116314;28;20073;-26
2023/11/16 09:08:02;;;;;;;7.93;4.32;;;;;;;;;;5116105;28;20485;-27
2023/11/16 09:10:34;;;;;;;10.57;4.47;;;;;;;;;;5115947;28;20011;-27
2023/11/16 09:13:00;;;;;;;5.65;3.80;;;;;;;;;;5115727;28;20143;-27
2023/11/16 09:15:25;;;;;;;9.00;4.53;;;;;;;;;;5116163;28;20047;-27
2023/11/16 09:17:51;;;;;;;8.38;4.47;;;;;;;;;;5115808;28;20064;-27
2023/11/16 09:20:20;;;;;;;8.48;4.95;;;;;;;;;;5116015;28;20022;-27
2023/11/16 09:22:47;;;;;;;8.70;5.10;;;;;;;;;;5115988;28;20020;-27
2023/11/16 09:25:23;;;;;;;11.57;5.88;;;;;;;;;;5115950;28;20416;-28
2023/11/16 09:27:50;;;;;;;9.40;5.63;;;;;;;;;;5115909;28;20059;-27
2023/11/16 09:30:21;;;;;;;11.63;5.07;;;;;;;;;;5115608;28;20020;-27
2023/11/16 09:32:47;;;;;;;11.73;5.32;;;;;;;;;;5115823;28;20012;-28
2023/11/16 09:35:21;;;;;;;11.07;5.55;;;;;;;;;;5115814;28;20016;-28
2023/11/16 09:37:49;;;;;;;17.05;5.80;;;;;;;;;;5115838;28;20107;-28
2023/11/16 09:40:21;;;;;;;9.93;5.47;;;;;;;;;;5115740;28;20016;-28
2023/11/16 09:42:48;;;;;;;10.10;5.33;;;;;;;;;;5115337;28;20099;-27
2023/11/16 09:45:20;;;;;;;11.65;6.15;;;;;;;;;;5115376;28;20523;-28
2023/11/16 09:47:53;;;;;;;9.00;5.25;;;;;;;;;;5115166;28;20016;-27
2023/11/16 09:50:20;;;;;;;9.00;5.60;;;;;;;;;;5115205;28;20027;-27
2023/11/16 09:52:46;;;;;;;9.15;5.45;;;;;;;;;;5115249;28;20022;-27
2023/11/16 09:55:13;;;;;;;11.73;6.43;;;;;;;;;;5113558;28;20047;-28
2023/11/16 09:57:41;;;;;;;11.40;5.85;;;;;;;;;;5113967;28;20035;-27
2023/11/16 10:00:15;;;;;;;11.98;5.65;;;;;;;;;;5115363;28;20059;-27
2023/11/16 10:02:45;;;;;;;11.55;6.00;;;;;;;;;;5107996;28;20027;-28
2023/11/16 10:05:22;;;;;;;11.55;5.30;;;;;;;;;;5115154;28;20478;-28
2023/11/16 10:07:53;;;;;;;11.65;6.00;;;;;;;;;;5112755;28;20034;-27
2023/11/16 10:10:22;;;;;;;11.15;5.20;;;;;;;;;;5114003;28;20015;-27
2023/11/16 10:12:50;;;;;;;9.70;5.32;;;;;;;;;;5113809;28;20007;-27
2023/11/16 10:15:17;;;;;;;10.07;5.63;;;;;;;;;;5114083;28;20020;-27
2023/11/16 10:17:43;;;;;;;10.77;5.47;;;;;;;;;;5113095;28;20051;-27
2023/11/16 10:20:10;;;;;;;10.93;5.60;;;;;;;;;;5112572;28;20034;-27
2023/11/16 10:22:35;;;;;;;11.48;5.60;;;;;;;;;;5114132;28;20020;-27
2023/11/16 10:25:06;;;;;;;10.87;5.37;;;;;;;;;;5115127;28;20072;-28
2023/11/16 10:27:32;;;;;;;10.32;5.45;;;;;;;;;;5114788;28;20253;-27
2023/11/16 10:30:00;;;;;;;14.57;5.75;;;;;;;;;;5114645;28;20459;-27
2023/11/16 10:32:26;;;;;;;11.13;5.43;;;;;;;;;;5114734;28;20365;-28
2023/11/16 10:34:51;;;;;;;9.73;5.47;;;;;;;;;;5114291;28;20050;-27
2023/11/16 10:37:18;;;;;;;11.23;5.70;;;;;;;;;;5114227;28;20015;-27
2023/11/16 10:39:43;;;;;;;11.63;5.35;;;;;;;;;;5114567;28;20024;-27
2023/11/16 10:42:09;;;;;;;9.15;5.40;;;;;;;;;;5114380;28;20107;-27
2023/11/16 10:44:36;;;;;;;10.43;5.25;;;;;;;;;;5114414;28;20514;-27
2023/11/16 10:47:03;;;;;;;11.68;5.80;;;;;;;;;;5114462;28;20371;-27
2023/11/16 10:49:29;;;;;;;9.88;4.82;;;;;;;;;;5113951;28;20458;-27
2023/11/16 10:51:55;;;;;;;10.43;4.70;;;;;;;;;;5114334;28;20080;-27
2023/11/16 10:54:23;;;;;;;7.88;4.93;;;;;;;;;;5113963;28;20047;-28
2023/11/16 10:56:49;;;;;;;9.73;5.00;;;;;;;;;;5114330;28;20347;-28
2023/11/16 10:59:17;;;;;;;7.88;4.97;;;;;;;;;;5114331;28;20020;-27
2023/11/16 11:01:42;;;;;;;10.38;5.10;;;;;;;;;;5114209;28;20028;-27
2023/11/16 11:04:07;;;;;;;10.27;4.87;;;;;;;;;;5113939;28;20374;-27
2023/11/16 11:06:39;;;;;;;8.32;4.68;;;;;;;;;;5112990;28;20254;-27
2023/11/16 11:09:07;;;;;;;8.35;5.03;;;;;;;;;;5113978;28;20106;-27
2023/11/16 11:11:38;;;;;;;9.70;4.90;;;;;;;;;;5113966;28;20026;-27
2023/11/16 11:14:06;;;;;;;12.57;5.05;;;;;;;;;;5114157;28;20028;-27
2023/11/16 11:16:31;;;;;;;8.40;5.05;;;;;;;;;;5114082;28;20099;-28
2023/11/16 11:18:57;;;;;;;9.73;4.78;;;;;;;;;;5113892;28;20055;-27
2023/11/16 11:21:23;;;;;;;12.70;4.75;;;;;;;;;;5113814;28;20019;-27
2023/11/16 11:24:04;;;;;;;9.85;4.90;;;;;;;;;;5113526;28;20023;-28
2023/11/16 11:26:56;;;;;;;10.40;4.80;;;;;;;;;;5113531;28;20030;-27
2023/11/16 11:29:23;;;;;;;14.25;4.85;;;;;;;;;;5110029;28;20058;-27
2023/11/16 11:31:54;;;;;;;13.65;5.15;;;;;;;;;;5113632;28;20072;-27
2023/11/16 11:34:25;;;;;;;11.02;4.75;;;;;;;;;;5113896;28;20016;-27
2023/11/16 11:36:50;;;;;;;9.88;4.85;;;;;;;;;;5113025;28;20019;-27
2023/11/16 11:39:16;;;;;;;9.60;4.80;;;;;;;;;;5111335;28;20045;-28
2023/11/16 11:41:47;;;;;;;9.67;5.07;;;;;;;;;;5111903;28;20362;-29
2023/11/16 11:44:13;;;;;;;10.20;4.90;;;;;;;;;;5112212;28;20265;-27
2023/11/16 11:46:39;;;;;;;9.48;4.80;;;;;;;;;;5113828;28;20023;-27
2023/11/16 11:49:06;;;;;;;8.45;4.65;;;;;;;;;;5113420;28;20024;-27
2023/11/16 11:51:32;;;;;;;9.10;4.47;;;;;;;;;;5113695;28;20012;-27
2023/11/16 11:53:57;;;;;;;8.45;3.78;;;;;;;;;;5113001;28;20039;-27
2023/11/16 11:56:22;;;;;;;6.53;3.70;;;;;;;;;;5112681;28;20414;-27
2023/11/16 11:58:47;;;;;;;8.93;4.00;;;;;;;;;;5113449;28;20031;-27
2023/11/16 12:01:13;;;;;;;12.40;3.63;;;;;;;;;;5113824;28;20026;-27
2023/11/16 12:03:48;;;;;;;13.95;3.58;;;;;;;;;;5113058;28;20285;-27
2023/11/16 12:06:16;;;;;;;11.68;3.80;;;;;;;;;;5113202;28;20051;-27
2023/11/16 12:08:41;;;;;;;11.40;4.00;;;;;;;;;;5113206;28;20024;-28
2023/11/16 12:11:10;;;;;;;8.60;3.85;;;;;;;;;;5113490;28;20020;-27
2023/11/16 12:13:36;;;;;;;9.45;4.13;;;;;;;;;;5113506;28;20019;-27
2023/11/16 12:16:06;;;;;;;10.40;4.43;;;;;;;;;;5113264;28;20019;-27
2023/11/16 12:18:33;;;;;;;9.77;3.85;;;;;;;;;;5116777;28;20027;-28
2023/11/16 12:20:58;;;;;;;14.82;4.65;;;;;;;;;;5117159;28;20081;-27
2023/11/16 12:23:24;;;;;;;7.53;3.80;;;;;;;;;;5116970;28;20020;-27
2023/11/16 12:25:49;;;;;;;6.03;3.97;;;;;;;;;;5116852;28;20254;-27
2023/11/16 12:28:14;;;;;;;8.90;4.40;;;;;;;;;;5116862;28;20478;-27
2023/11/16 12:30:40;;;;;;;9.80;4.00;;;;;;;;;;5116927;28;20449;-27
2023/11/16 12:33:07;;;;;;;8.10;3.42;;;;;;;;;;5115418;28;20064;-27
2023/11/16 12:35:35;;;;;;;6.75;3.35;;;;;;;;;;5116466;28;20035;-28
2023/11/16 12:38:01;;;;;;;8.68;3.53;;;;;;;;;;5116777;28;20098;-27
2023/11/16 12:40:26;;;;;;;6.20;3.40;;;;;;;;;;5116616;28;20043;-27
2023/11/16 12:42:51;;;;;;;11.48;3.70;;;;;;;;;;5116822;28;20746;-27
2023/11/16 12:45:17;;;;;;;6.93;3.27;;;;;;;;;;5116550;28;20016;-27
2023/11/16 12:47:43;;;;;;;8.95;3.63;;;;;;;;;;5116429;28;20264;-27
2023/11/16 12:50:09;;;;;;;12.15;3.67;;;;;;;;;;5115498;28;20104;-29
2023/11/16 12:52:35;;;;;;;9.40;3.45;;;;;;;;;;5115968;28;20399;-31
2023/11/16 12:55:01;;;;;;;9.73;2.92;;;;;;;;;;5116198;28;20075;-27
2023/11/16 12:57:27;;;;;;;7.72;3.10;;;;;;;;;;5116526;28;20031;-27
2023/11/16 12:59:53;;;;;;;11.13;3.45;;;;;;;;;;5116637;28;20550;-27
2023/11/16 13:02:18;;;;;;;10.05;3.25;;;;;;;;;;5116459;28;20098;-27
2023/11/16 13:04:43;;;;;;;5.88;3.10;;;;;;;;;;5116170;28;20019;-27
2023/11/16 13:07:08;;;;;;;10.93;3.00;;;;;;;;;;5115283;28;20035;-27
2023/11/16 13:09:35;;;;;;;10.50;3.20;;;;;;;;;;5116916;28;20277;-27
2023/11/16 13:12:01;;;;;;;15.57;3.47;;;;;;;;;;5116193;28;20091;-27
2023/11/16 13:14:26;;;;;;;6.97;3.08;;;;;;;;;;5116284;28;20043;-27
2023/11/16 13:16:51;;;;;;;9.80;3.40;;;;;;;;;;5116448;28;20015;-27
2023/11/16 13:19:17;;;;;;;7.75;3.00;;;;;;;;;;5115882;28;20747;-27
2023/11/16 13:21:42;;;;;;;10.43;3.05;;;;;;;;;;5116098;28;20027;-27
2023/11/16 13:24:08;;;;;;;11.15;3.28;;;;;;;;;;5115980;28;20015;-28
2023/11/16 13:26:35;;;;;;;9.43;3.05;;;;;;;;;;5116040;28;20468;-27
2023/11/16 13:29:00;;;;;;;8.77;2.83;;;;;;;;;;5115050;28;20485;-27
2023/11/16 13:31:25;;;;;;;6.93;2.57;;;;;;;;;;5115622;28;20016;-27
2023/11/16 13:33:50;;;;;;;6.07;2.60;;;;;;;;;;5116126;28;20242;-27
2023/11/16 13:36:16;;;;;;;6.78;2.35;;;;;;;;;;5115700;28;20072;-27
2023/11/16 13:38:41;;;;;;;11.65;2.55;;;;;;;;;;5115657;28;20020;-27
2023/11/16 13:41:07;;;;;;;6.17;2.37;;;;;;;;;;5115516;28;20382;-27
2023/11/16 13:43:32;;;;;;;6.53;2.03;;;;;;;;;;5115632;28;20639;-27
2023/11/16 13:45:57;;;;;;;8.50;2.20;;;;;;;;;;5115295;28;20016;-27
2023/11/16 13:48:23;;;;;;;6.32;2.05;;;;;;;;;;5115753;28;20281;-27
2023/11/16 13:50:51;;;;;;;14.63;2.08;;;;;;;;;;5115438;28;20020;-27
2023/11/16 13:53:17;;;;;;;7.40;2.10;;;;;;;;;;5115152;28;20482;-27
2023/11/16 13:55:43;;;;;;;4.53;1.90;;;;;;;;;;5115057;28;20032;-27
2023/11/16 13:58:08;;;;;;;11.87;2.10;;;;;;;;;;5115109;28;20053;-27
2023/11/16 14:00:33;;;;;;;7.70;2.80;;;;;;;;;;5115189;28;20332;-27
2023/11/16 14:02:59;;;;;;;8.73;1.80;;;;;;;;;;5115519;28;20023;-27
2023/11/16 14:05:24;;;;;;;9.25;2.40;;;;;;;;;;5114869;28;20094;-27
2023/11/16 14:07:49;;;;;;;6.15;1.90;;;;;;;;;;5115170;28;20098;-27
2023/11/16 14:10:14;;;;;;;8.30;1.93;;;;;;;;;;5114789;28;20065;-27
2023/11/16 14:12:39;;;;;;;6.68;1.80;;;;;;;;;;5114993;28;20265;-27
2023/11/16 14:15:08;;;;;;;7.87;1.80;;;;;;;;;;5115284;28;20012;-28
2023/11/16 14:17:33;;;;;;;4.53;2.05;;;;;;;;;;5114909;28;20253;-27
2023/11/16 14:19:58;;;;;;;9.90;3.50;;;;;;;;;;5115191;28;20015;-27
2023/11/16 14:22:24;;;;;;;7.40;2.00;;;;;;;;;;5115146;28;20254;-27
2023/11/16 14:24:49;;;;;;;18.58;4.05;;;;;;;;;;5114550;28;20611;-27
2023/11/16 14:27:14;;;;;;;5.13;2.25;;;;;;;;;;5114723;28;20068;-28
2023/11/16 14:29:40;;;;;;;8.90;2.30;;;;;;;;;;5114762;28;20016;-27
2023/11/16 14:32:05;;;;;;;8.25;2.40;;;;;;;;;;5114221;28;20408;-27
2023/11/16 14:34:30;;;;;;;12.27;2.50;;;;;;;;;;5114437;28;20020;-27
2023/11/16 14:36:55;;;;;;;6.88;2.40;;;;;;;;;;5114666;28;20245;-27